createdAt,value
2023-03-01T00:01:12.519Z,15.52
2023-03-01T00:03:59.219Z,17.73
2023-03-01T00:06:47.001Z,15.05
2023-03-01T00:09:32.305Z,12.82
2023-03-01T00:12:17.777Z,13.10
2023-03-01T00:15:05.740Z,13.95
2023-03-01T00:17:51.338Z,13.00
2023-03-01T00:20:36.675Z,13.70
2023-03-01T00:23:23.446Z,13.07
2023-03-01T00:26:12.037Z,14.02
2023-03-01T00:29:00.279Z,14.32
2023-03-01T00:31:45.440Z,14.93
2023-03-01T00:34:30.979Z,15.40
2023-03-01T00:37:16.067Z,15.27
2023-03-01T00:40:01.120Z,15.20
2023-03-01T00:42:46.430Z,16.73
2023-03-01T00:45:32.271Z,15.32
2023-03-01T00:48:17.900Z,15.00
2023-03-01T00:51:12.559Z,15.35
2023-03-01T00:54:00.650Z,15.52
2023-03-01T00:56:46.053Z,17.50
2023-03-01T00:59:31.879Z,15.82
2023-03-01T01:02:18.386Z,15.57
2023-03-01T01:05:04.187Z,16.20
2023-03-01T01:07:49.592Z,16.33
2023-03-01T01:10:35.894Z,16.00
2023-03-01T01:13:21.467Z,16.77
2023-03-01T01:16:08.115Z,16.92
2023-03-01T01:18:53.813Z,16.33
2023-03-01T01:21:39.316Z,16.55
2023-03-01T01:24:24.785Z,17.35
2023-03-01T01:27:10.153Z,15.45
2023-03-01T01:29:55.674Z,16.23
2023-03-01T01:32:40.883Z,17.00
2023-03-01T01:35:26.384Z,16.73
2023-03-01T01:38:11.455Z,17.25
2023-03-01T01:40:56.999Z,17.95
2023-03-01T01:43:48.775Z,16.70
2023-03-01T01:46:36.671Z,16.80
2023-03-01T01:49:25.030Z,17.90
2023-03-01T01:52:36.743Z,17.08
2023-03-01T01:55:28.473Z,16.92
2023-03-01T01:58:16.989Z,18.55
2023-03-01T02:01:03.705Z,16.80
2023-03-01T02:03:49.551Z,18.65
2023-03-01T02:06:40.604Z,18.05
2023-03-01T02:09:26.470Z,17.50
2023-03-01T02:12:12.058Z,17.92
2023-03-01T02:14:57.436Z,17.13
2023-03-01T02:17:43.351Z,17.30
2023-03-01T02:20:31.950Z,17.45
2023-03-01T02:23:17.678Z,16.30
2023-03-01T02:26:08.389Z,17.15
2023-03-01T02:28:54.074Z,17.75
2023-03-01T02:31:45.948Z,17.85
2023-03-01T02:34:33.290Z,15.80
2023-03-01T02:37:25.539Z,17.92
2023-03-01T02:40:18.326Z,16.98
2023-03-01T02:43:09.471Z,17.50
2023-03-01T02:45:59.389Z,16.58
2023-03-01T02:48:48.198Z,17.95
2023-03-01T02:51:53.622Z,13.18
2023-03-01T02:54:55.208Z,16.95
2023-03-01T02:57:45.053Z,18.05
2023-03-01T03:00:50.832Z,17.23
2023-03-01T03:03:36.661Z,17.75
2023-03-01T03:06:34.444Z,18.40
2023-03-01T03:09:30.227Z,16.88
2023-03-01T03:12:15.772Z,17.67
2023-03-01T03:15:01.134Z,17.08
2023-03-01T03:17:46.583Z,16.25
2023-03-01T03:20:32.831Z,17.85
2023-03-01T03:23:18.261Z,16.25
2023-03-01T03:26:05.077Z,16.65
2023-03-01T03:28:50.502Z,16.80
2023-03-01T03:31:36.068Z,17.23
2023-03-01T03:34:21.219Z,16.05
2023-03-01T03:37:26.564Z,15.98
2023-03-01T03:40:16.300Z,17.30
2023-03-01T03:43:03.831Z,16.70
2023-03-01T03:45:50.815Z,16.13
2023-03-01T03:48:38.633Z,17.48
2023-03-01T03:51:23.837Z,16.20
2023-03-01T03:54:09.038Z,16.50
2023-03-01T03:56:54.467Z,15.85
2023-03-01T03:59:39.828Z,16.13
2023-03-01T04:02:25.389Z,16.30
2023-03-01T04:05:12.506Z,17.48
2023-03-01T04:08:04.402Z,15.10
2023-03-01T04:10:52.576Z,17.13
2023-03-01T04:13:37.998Z,15.65
2023-03-01T04:16:23.555Z,17.08
2023-03-01T04:19:10.424Z,14.85
2023-03-01T04:21:56.003Z,16.35
2023-03-01T04:24:41.517Z,16.50
2023-03-01T04:27:26.647Z,16.35
2023-03-01T04:30:12.441Z,16.50
2023-03-01T04:32:57.749Z,16.05
2023-03-01T04:35:43.283Z,15.85
2023-03-01T04:38:28.574Z,16.40
2023-03-01T04:41:14.943Z,16.52
2023-03-01T04:44:01.090Z,16.70
2023-03-01T04:46:46.210Z,16.77
2023-03-01T04:49:32.191Z,16.83
2023-03-01T04:52:18.050Z,16.17
2023-03-01T04:55:04.590Z,16.48
2023-03-01T04:57:49.754Z,15.85
2023-03-01T05:00:35.139Z,16.95
2023-03-01T05:03:21.260Z,16.15
2023-03-01T05:06:06.582Z,15.65
2023-03-01T05:08:51.622Z,16.02
2023-03-01T05:11:37.057Z,16.75
2023-03-01T05:14:22.781Z,18.70
2023-03-01T05:17:08.233Z,16.05
2023-03-01T05:19:53.378Z,16.70
2023-03-01T05:22:39.418Z,16.15
2023-03-01T05:25:24.968Z,16.02
2023-03-01T05:28:14.106Z,15.30
2023-03-01T05:30:59.393Z,16.73
2023-03-01T05:33:44.681Z,16.25
2023-03-01T05:36:30.258Z,17.20
2023-03-01T05:39:15.564Z,16.30
2023-03-01T05:42:02.348Z,15.88
2023-03-01T05:44:47.765Z,15.07
2023-03-01T05:47:33.121Z,16.35
2023-03-01T05:50:23.915Z,16.65
2023-03-01T05:53:18.441Z,16.27
2023-03-01T05:56:05.073Z,17.50
2023-03-01T05:58:50.752Z,16.70
2023-03-01T06:01:36.838Z,16.30
2023-03-01T06:04:22.235Z,16.70
2023-03-01T06:07:07.747Z,15.50
2023-03-01T06:09:53.220Z,16.58
2023-03-01T06:12:40.301Z,16.88
2023-03-01T06:15:26.288Z,15.93
2023-03-01T06:18:11.706Z,16.48
2023-03-01T06:20:57.451Z,15.73
2023-03-01T06:23:42.640Z,16.45
2023-03-01T06:26:27.710Z,16.85
2023-03-01T06:29:12.875Z,17.00
2023-03-01T06:31:58.403Z,16.42
2023-03-01T06:34:43.695Z,16.70
2023-03-01T06:37:29.168Z,16.40
2023-03-01T06:40:15.970Z,16.00
2023-03-01T06:43:01.826Z,16.13
2023-03-01T06:45:47.149Z,16.35
2023-03-01T06:48:32.487Z,16.02
2023-03-01T06:51:18.183Z,15.45
2023-03-01T06:54:05.114Z,16.35
2023-03-01T06:56:51.095Z,16.75
2023-03-01T06:59:36.561Z,17.10
2023-03-01T07:02:22.126Z,17.67
2023-03-01T07:05:07.702Z,16.20
2023-03-01T07:07:54.708Z,15.52
2023-03-01T07:10:39.916Z,14.75
2023-03-01T07:13:25.770Z,17.30
2023-03-01T07:16:11.211Z,16.58
2023-03-01T07:18:56.894Z,16.33
2023-03-01T07:21:42.664Z,17.40
2023-03-01T07:24:27.902Z,18.23
2023-03-01T07:27:13.205Z,16.70
2023-03-01T07:29:58.592Z,17.17
2023-03-01T07:32:44.258Z,16.45
2023-03-01T07:35:29.377Z,17.58
2023-03-01T07:38:14.590Z,17.13
2023-03-01T07:41:01.855Z,18.17
2023-03-01T07:43:47.346Z,16.85
2023-03-01T07:46:33.495Z,16.65
2023-03-01T07:49:18.672Z,15.82
2023-03-01T07:52:04.081Z,15.32
2023-03-01T07:54:49.241Z,15.70
2023-03-01T07:57:34.609Z,14.27
2023-03-01T08:00:20.412Z,14.90
2023-03-01T08:03:05.870Z,14.07
2023-03-01T08:05:51.250Z,12.32
2023-03-01T08:08:37.310Z,12.02
2023-03-01T08:11:22.772Z,11.10
2023-03-01T08:14:07.839Z,11.25
2023-03-01T08:16:53.256Z,11.13
2023-03-01T08:19:39.011Z,11.75
2023-03-01T08:22:24.486Z,10.77
2023-03-01T08:25:10.637Z,11.48
2023-03-01T08:27:56.083Z,10.18
2023-03-01T08:30:41.383Z,9.80
2023-03-01T08:33:27.309Z,9.80
2023-03-01T08:36:12.575Z,9.57
2023-03-01T08:38:58.727Z,9.60
2023-03-01T08:41:44.657Z,8.43
2023-03-01T08:44:31.172Z,8.95
2023-03-01T08:47:16.401Z,9.65
2023-03-01T08:50:01.888Z,9.05
2023-03-01T08:52:47.297Z,8.95
2023-03-01T08:55:32.500Z,8.85
2023-03-01T08:58:18.200Z,8.52
2023-03-01T09:01:11.347Z,8.55
2023-03-01T09:03:59.014Z,8.10
2023-03-01T09:06:44.466Z,7.53
2023-03-01T09:09:29.774Z,8.13
2023-03-01T09:12:15.239Z,7.35
2023-03-01T09:15:00.940Z,8.05
2023-03-01T09:17:46.027Z,6.85
2023-03-01T09:20:32.578Z,5.45
2023-03-01T09:23:17.856Z,5.50
2023-03-01T09:26:04.153Z,5.50
2023-03-01T09:28:51.679Z,5.60
2023-03-01T09:31:44.264Z,5.70
2023-03-01T09:34:29.381Z,4.40
2023-03-01T09:37:15.880Z,4.95
2023-03-01T09:40:01.483Z,5.10
2023-03-01T09:42:53.194Z,5.53
2023-03-01T09:45:45.098Z,4.97
2023-03-01T09:48:38.396Z,4.68
2023-03-01T09:51:30.572Z,5.10
2023-03-01T09:54:15.674Z,5.70
2023-03-01T09:57:12.457Z,6.05
2023-03-01T10:00:22.285Z,5.57
2023-03-01T10:03:31.972Z,5.50
2023-03-01T10:06:34.967Z,5.13
2023-03-01T10:09:22.422Z,5.53
2023-03-01T10:12:12.476Z,6.50
2023-03-01T10:15:15.278Z,5.78
2023-03-01T10:18:15.334Z,5.88
2023-03-01T10:21:09.134Z,5.63
2023-03-01T10:23:54.910Z,6.97
2023-03-01T10:26:54.769Z,6.30
2023-03-01T10:30:04.016Z,6.80
2023-03-01T10:32:52.426Z,6.68
2023-03-01T10:35:38.130Z,7.37
2023-03-01T10:38:23.640Z,7.32
2023-03-01T10:41:09.392Z,6.82
2023-03-01T10:44:01.245Z,7.28
2023-03-01T10:46:46.418Z,6.85
2023-03-01T10:49:32.577Z,7.60
2023-03-01T10:52:23.476Z,7.20
2023-03-01T10:55:28.821Z,6.70
2023-03-01T10:58:21.624Z,7.72
2023-03-01T11:01:26.955Z,6.18
2023-03-01T11:04:14.538Z,6.80
2023-03-01T11:07:01.802Z,6.18
2023-03-01T11:09:46.959Z,6.38
2023-03-01T11:12:33.564Z,5.72
2023-03-01T11:15:28.309Z,6.18
2023-03-01T11:18:26.611Z,5.25
2023-03-01T11:21:17.426Z,5.75
2023-03-01T11:24:04.125Z,5.97
2023-03-01T11:26:54.897Z,4.82
2023-03-01T11:29:48.721Z,4.60
2023-03-01T11:32:44.138Z,4.07
2023-03-01T11:35:30.517Z,3.75
2023-03-01T11:38:23.552Z,4.20
2023-03-01T11:41:22.756Z,3.83
2023-03-01T11:44:42.768Z,3.00
2023-03-01T11:47:43.659Z,3.53
2023-03-01T11:50:49.518Z,3.90
2023-03-01T11:54:18.975Z,3.60
2023-03-01T11:57:42.818Z,2.88
2023-03-01T12:01:02.881Z,3.30
2023-03-01T12:04:13.937Z,3.22
2023-03-01T12:07:13.434Z,3.55
2023-03-01T12:10:22.477Z,3.35
2023-03-01T12:13:23.171Z,3.78
2023-03-01T12:16:39.104Z,3.08
2023-03-01T12:19:36.590Z,3.25
2023-03-01T12:22:36.790Z,3.60
2023-03-01T12:25:59.238Z,3.60
2023-03-01T12:28:53.029Z,4.45
2023-03-01T12:31:50.013Z,3.47
2023-03-01T12:34:54.680Z,3.50
2023-03-01T12:37:55.378Z,3.33
2023-03-01T12:41:09.066Z,3.13
2023-03-01T12:43:57.242Z,4.13
2023-03-01T12:47:13.484Z,3.53
2023-03-01T12:50:12.371Z,3.38
2023-03-01T12:52:58.743Z,3.05
2023-03-01T12:55:44.239Z,3.42
2023-03-01T12:58:49.822Z,3.42
2023-03-01T13:01:58.471Z,3.03
2023-03-01T13:05:07.460Z,3.97
2023-03-01T13:08:03.192Z,3.58
2023-03-01T13:10:59.471Z,3.55
2023-03-01T13:13:44.865Z,3.67
2023-03-01T13:16:30.535Z,3.03
2023-03-01T13:19:22.436Z,3.45
2023-03-01T13:22:30.290Z,3.42
2023-03-01T13:25:19.379Z,3.45
2023-03-01T13:28:38.489Z,3.65
2023-03-01T13:31:26.949Z,3.70
2023-03-01T13:34:42.787Z,3.30
2023-03-01T13:37:31.558Z,3.70
2023-03-01T13:40:17.655Z,3.92
2023-03-01T13:43:32.372Z,3.50
2023-03-01T13:46:22.617Z,3.72
2023-03-01T13:49:15.564Z,3.17
2023-03-01T13:52:02.622Z,3.55
2023-03-01T13:54:47.899Z,2.80
2023-03-01T13:57:40.170Z,3.05
2023-03-01T14:00:33.347Z,2.90
2023-03-01T14:03:20.733Z,3.40
2023-03-01T14:06:16.332Z,3.42
2023-03-01T14:09:07.460Z,3.55
2023-03-01T14:15:01.184Z,2.95
2023-03-01T14:18:08.310Z,2.83
2023-03-01T14:20:53.792Z,2.88
2023-03-01T14:23:42.991Z,2.95
2023-03-01T14:26:28.561Z,2.80
2023-03-01T14:29:27.943Z,2.35
2023-03-01T14:35:04.741Z,2.30
2023-03-01T14:37:50.739Z,2.30
2023-03-01T14:40:37.817Z,2.22
2023-03-01T14:43:27.102Z,2.70
2023-03-01T14:46:24.925Z,2.33
2023-03-01T14:49:18.035Z,2.55
2023-03-01T14:52:07.124Z,2.60
2023-03-01T14:54:54.596Z,2.75
2023-03-01T14:57:44.692Z,2.70
2023-03-01T15:00:32.880Z,2.78
2023-03-01T15:03:28.582Z,2.67
2023-03-01T15:06:18.815Z,2.80
2023-03-01T15:09:04.804Z,2.95
2023-03-01T15:11:50.060Z,2.72
2023-03-01T15:14:49.479Z,3.15
2023-03-01T15:17:40.106Z,3.65
2023-03-01T15:20:30.149Z,3.28
2023-03-01T15:23:31.114Z,3.17
2023-03-01T15:26:30.528Z,3.13
2023-03-01T15:29:19.743Z,3.20
2023-03-01T15:32:23.714Z,2.83
2023-03-01T15:35:40.205Z,3.13
2023-03-01T15:38:30.498Z,3.35
2023-03-01T15:41:26.707Z,3.42
2023-03-01T15:44:30.005Z,2.83
2023-03-01T15:47:31.906Z,2.95
2023-03-01T15:50:22.483Z,3.42
2023-03-01T15:53:13.669Z,3.30
2023-03-01T15:55:58.905Z,2.70
2023-03-01T15:58:44.482Z,3.47
2023-03-01T16:01:30.655Z,3.15
2023-03-01T16:04:21.806Z,3.70
2023-03-01T16:07:07.228Z,3.08
2023-03-01T16:09:52.904Z,2.67
2023-03-01T16:12:40.038Z,3.47
2023-03-01T16:15:33.075Z,3.03
2023-03-01T16:18:18.829Z,3.50
2023-03-01T16:21:04.316Z,3.92
2023-03-01T16:23:51.115Z,3.00
2023-03-01T16:26:38.633Z,3.40
2023-03-01T16:29:24.242Z,3.42
2023-03-01T16:32:09.416Z,3.13
2023-03-01T16:34:54.653Z,3.25
2023-03-01T16:37:40.819Z,3.17
2023-03-01T16:40:29.057Z,3.20
2023-03-01T16:43:14.457Z,3.80
2023-03-01T16:45:59.931Z,2.92
2023-03-01T16:48:46.059Z,3.22
2023-03-01T16:51:32.015Z,3.50
2023-03-01T16:54:17.418Z,3.95
2023-03-01T16:57:03.152Z,3.28
2023-03-01T16:59:53.963Z,3.70
2023-03-01T17:02:41.745Z,3.63
2023-03-01T17:05:26.886Z,3.78
2023-03-01T17:08:12.194Z,4.03
2023-03-01T17:11:07.044Z,3.75
2023-03-01T17:13:52.571Z,4.22
2023-03-01T17:16:38.044Z,3.95
2023-03-01T17:19:23.702Z,3.88
2023-03-01T17:22:09.042Z,3.78
2023-03-01T17:24:54.814Z,3.92
2023-03-01T17:27:41.206Z,4.00
2023-03-01T17:30:26.679Z,4.00
2023-03-01T17:33:12.212Z,4.28
2023-03-01T17:35:58.241Z,4.22
2023-03-01T17:38:43.832Z,4.50
2023-03-01T17:41:29.410Z,5.43
2023-03-01T17:44:14.653Z,4.88
2023-03-01T17:47:00.688Z,5.32
2023-03-01T17:49:45.968Z,3.95
2023-03-01T17:52:31.546Z,4.82
2023-03-01T17:55:17.384Z,5.10
2023-03-01T17:58:03.102Z,4.38
2023-03-01T18:00:50.571Z,4.72
2023-03-01T18:03:35.962Z,4.68
2023-03-01T18:06:24.014Z,4.40
2023-03-01T18:09:09.679Z,5.70
2023-03-01T18:11:54.712Z,5.93
2023-03-01T18:14:40.179Z,5.53
2023-03-01T18:17:25.754Z,5.60
2023-03-01T18:20:13.078Z,5.53
2023-03-01T18:22:58.426Z,5.45
2023-03-01T18:25:43.883Z,5.65
2023-03-01T18:28:30.524Z,5.40
2023-03-01T18:31:21.668Z,5.03
2023-03-01T18:34:07.169Z,4.80
2023-03-01T18:37:08.081Z,6.00
2023-03-01T18:39:54.567Z,5.75
2023-03-01T18:42:39.649Z,6.18
